ADDS METAR Data INFO
IDs: Format: Raw Decoded Include TAF

Data at: 1228 UTC 22 Feb 2018

KCQF 221215Z AUTO 12004KT 3/4SM BR OVC002 20/20 A3033 RMK AO2
KCQF 221155Z AUTO 00000KT 1/2SM FG OVC002 19/19 A3032 RMK AO2
KCQF 221135Z AUTO 00000KT 1/2SM FG OVC002 18/18 A3032 RMK AO2
KCQF 221115Z AUTO 00000KT 1/2SM FG OVC002 18/18 A3031 RMK AO2
KCQF 221055Z AUTO 00000KT 1SM BR OVC002 17/17 A3031 RMK AO2
KCQF 221035Z AUTO 00000KT 3/4SM BR SCT003 OVC013 18/18 A3030 RMK AO2
KCQF 221015Z AUTO 00000KT 3/4SM BR BKN013 18/18 A3030 RMK AO2
KCQF 220955Z AUTO 00000KT 4SM BR CLR 19/19 A3030 RMK AO2
KCQF 220935Z AUTO 00000KT 7SM CLR 20/20 A3030 RMK AO2
KCQF 220915Z AUTO 00000KT 7SM CLR 20/20 A3029 RMK AO2
KCQF 220855Z AUTO 00000KT 7SM CLR 20/20 A3029 RMK AO2
KCQF 220835Z AUTO 13003KT 7SM CLR 20/20 A3030 RMK AO2
KCQF 220815Z AUTO 13004KT 7SM BKN006 BKN022 21/21 A3030 RMK AO2
KCQF 220755Z AUTO 13006KT 7SM OVC006 21/21 A3031 RMK AO2
KCQF 220735Z AUTO 13004KT 7SM OVC006 21/21 A3031 RMK AO2
KCQF 220715Z AUTO 12004KT 10SM OVC008 21/21 A3031 RMK AO2
KCQF 220655Z AUTO 13004KT 10SM OVC008 21/21 A3032 RMK AO2
KCQF 220635Z AUTO 13005KT 10SM OVC008 21/21 A3032 RMK AO2
KCQF 220615Z AUTO 13005KT 10SM OVC008 21/21 A3032 RMK AO2
KCQF 220555Z AUTO 14005KT 10SM OVC008 22/22 A3032 RMK AO2
KCQF 220535Z AUTO 15008KT 10SM OVC008 22/22 A3032 RMK AO2
KCQF 220515Z AUTO 14010G14KT 10SM OVC008 22/22 A3032 RMK AO2
KCQF 220455Z AUTO 14008KT 10SM OVC008 22/22 A3032 RMK AO2
KCQF 220435Z AUTO 14010G15KT 10SM OVC008 22/22 A3032 RMK AO2
KCQF 220415Z AUTO 15008KT 10SM OVC008 22/22 A3031 RMK AO2
KCQF 220355Z AUTO 14009KT 10SM OVC008 22/22 A3030 RMK AO2
KCQF 220035Z AUTO 14008KT 10SM OVC010 22/22 A3027 RMK AO2
KCQF 220015Z AUTO 15008KT 10SM OVC010 22/22 A3027 RMK AO2
KCQF 212355Z AUTO 13008KT 10SM OVC012 23/23 A3027 RMK AO2
KCQF 212335Z AUTO 13008G15KT 10SM OVC012 23/23 A3026 RMK AO2
KCQF 212315Z AUTO 14008KT 10SM OVC012 23/23 A3026 RMK AO2
KCQF 212255Z AUTO 15008G14KT 10SM OVC012 23/23 A3026 RMK AO2
KCQF 212235Z AUTO 13008KT 10SM OVC014 23/22 A3025 RMK AO2
KCQF 212215Z AUTO 14012G16KT 10SM OVC016 24/22 A3025 RMK AO2
KCQF 212155Z AUTO 15012G18KT 10SM BKN016 OVC020 24/22 A3025 RMK AO2
KCQF 212135Z AUTO 16016G20KT 10SM BKN016 BKN021 OVC050 24/22 A3024 RMK AO2
KCQF 212115Z AUTO 14012G18KT 10SM BKN016 BKN029 OVC050 25/22 A3024 RMK AO2
KCQF 212055Z AUTO 13008G19KT 10SM BKN018 BKN029 OVC048 25/22 A3025 RMK AO2
KCQF 212035Z AUTO 16013KT 10SM SCT018 SCT024 BKN048 25/22 A3025 RMK AO2
KCQF 212015Z AUTO 15016KT 10SM SCT020 BKN030 BKN036 25/22 A3025 RMK AO2
KCQF 211955Z AUTO 16014G18KT 10SM SCT020 SCT025 BKN037 25/22 A3026 RMK AO2
KCQF 211935Z AUTO 16017G21KT 10SM BKN020 BKN027 BKN031 26/22 A3026 RMK AO2
KCQF 211915Z AUTO 16017G24KT 10SM OVC018 26/22 A3027 RMK AO2
KCQF 211855Z AUTO 14012G18KT 10SM OVC018 26/22 A3027 RMK AO2
KCQF 211835Z AUTO 13010KT 10SM OVC018 25/22 A3028 RMK AO2
KCQF 211815Z AUTO 14010G20KT 10SM OVC020 25/22 A3028 RMK AO2
KCQF 211755Z AUTO 14010G19KT 10SM BKN020 OVC024 25/22 A3029 RMK AO2
KCQF 211735Z AUTO 14013G21KT 10SM OVC020 25/22 A3029 RMK AO2
KCQF 211715Z AUTO 14012G20KT 10SM OVC018 25/22 A3030 RMK AO2
KCQF 211655Z AUTO 13012G19KT 10SM OVC018 25/22 A3031 RMK AO2
KCQF 211635Z AUTO 14012G18KT 10SM OVC016 24/22 A3032 RMK AO2
KCQF 211615Z AUTO 14012G17KT 10SM OVC016 23/22 A3032 RMK AO2
KCQF 211555Z AUTO 14010G17KT 10SM OVC014 23/22 A3032 RMK AO2
KCQF 211535Z AUTO 14010G20KT 10SM OVC012 23/22 A3031 RMK AO2
KCQF 211515Z AUTO 13011KT 10SM OVC012 23/22 A3031 RMK AO2
KCQF 211455Z AUTO 13012G17KT 10SM OVC010 22/22 A3031 RMK AO2
KCQF 211435Z AUTO 13010G16KT 10SM OVC010 22/22 A3031 RMK AO2
KCQF 211415Z AUTO 13007KT 10SM OVC008 22/22 A3030 RMK AO2
KCQF 211355Z AUTO 13007KT 10SM OVC008 21/21 A3030 RMK AO2
KCQF 211335Z AUTO 13008KT 10SM OVC008 21/21 A3030 RMK AO2
KCQF 211315Z AUTO 12010KT 10SM OVC008 21/21 A3029 RMK AO2
KCQF 211255Z AUTO 13005KT 10SM OVC008 21/21 A3029 RMK AO2
KCQF 210755Z AUTO 13007KT 10SM OVC014 21/21 A3025 RMK AO2
KCQF 210735Z AUTO 14006KT 10SM SCT010 OVC014 21/21 A3025 RMK AO2
KCQF 210715Z AUTO 14006KT 10SM BKN008 OVC012 21/21 A3026 RMK AO2
KCQF 210655Z AUTO 13007KT 10SM OVC008 21/21 A3026 RMK AO2
KCQF 210635Z AUTO 14008KT 10SM BKN008 BKN023 21/21 A3026 RMK AO2
KCQF 210615Z AUTO 14008KT 10SM BKN008 BKN019 BKN024 21/21 A3025 RMK AO2
KCQF 210555Z AUTO 13008KT 10SM BKN008 OVC025 21/21 A3025 RMK AO2